SLVRSLCB

Guest
Details From SLVR - VIRU VIRU INTL
To SLCB - JORGE WILSTERMAN
Flight Number -
Tags decoded
Created
Modified
Stats Distance 175 nm / 324 km
Max Altitude 0 ft / 0 m
Waypoints 3
Social Downloads 0
Likes 0
Share

Download

Looking for another format? Having issues loading an existing format? Contact us
Advertisement - Login to hide

Notes

Requested: SLVR SANSO1 UW677 CBA SLCB Unmatched points: SANSO1 UW677

Route

SLVR CBA SLCB

ID Type Via Altitude (ft/m) Position (lat/lon) Dist (leg/tot) Name
O SLVR APT - 0 / 0 -17.64476 / -63.13536 - / 0 nm VIRU VIRU INTL
CBA VOR - 0 / 0 -17.42126 / -66.17904 174 / 174 nm COCHABAMBA VOR-DME
O SLCB APT - 0 / 0 -17.42039 / -66.17717 0 / 174 nm JORGE WILSTERMAN

Altitude Profile

Advertisement - Login to hide

Weather


0- 5 10 15 20 25 30 35+ Temperature / °C

Clouds and Precipitation
Forecast for 2021-03-22 12:00 UTC. Updated 2 months ago

Ground ~20,000 ft ~40,000 ft Winds

SLVR

Details ICAO SLVR (VVI)
Name Viru Viru Intl
Region Bolivia
Timezone America/La_Paz (UTC-4.0)
Stats Elevation 1,224 ft / 373 m (AMSL)
Location -17.644800° -63.135400°
Runways 1
Magnetic Variation 12.549° W

METAR

SLVR 111800Z 17012KT 9999 BKN020 OVC070 19/14 Q1018

Decode

TAF

Not found

Departure Runways

ID Width Length Bearing (true/mag) Surface Threshold Overrun Markings Lighting
16 148 ft / 45 m 11,516 ft / 3,510 m 147.35° / 159.90° CONCRETE 0 ft / 0 m 197 ft / 60 m PREC-APP CENTERLINE EDGE THRESHOLD CALVERT REIL-OMNI
34 148 ft / 45 m 11,516 ft / 3,510 m 327.34° / 339.89° CONCRETE 0 ft / 0 m 197 ft / 60 m PREC-APP CENTERLINE EDGE THRESHOLD ALSF-I REIL-OMNI

SLCB

Details ICAO SLCB (CBB)
Name Jorge Wilsterman
Region Bolivia
Timezone America/La_Paz (UTC-4.0)
Stats Elevation 8,359 ft / 2,548 m (AMSL)
Location -17.420400° -66.177200°
Runways 2
Magnetic Variation 10.063° W

METAR

SLCB 111800Z 18006KT 9999 FEW036 26/02 Q1020

Decode

TAF

Not found

Destination Runways

ID Width Length Bearing (true/mag) Surface Threshold Overrun Markings Lighting
04 148 ft / 45 m 8,718 ft / 2,657 m 37.26° / 47.33° ASPHALT 0 ft / 0 m 0 ft / 0 m PREC-APP EDGE THRESHOLD
14 148 ft / 45 m 12,485 ft / 3,805 m 132.10° / 142.17° ASPHALT 335 ft / 102 m 200 ft / 61 m PREC-APP EDGE THRESHOLD
22 148 ft / 45 m 8,718 ft / 2,657 m 217.26° / 227.32° ASPHALT 732 ft / 223 m 0 ft / 0 m PREC-APP EDGE THRESHOLD
32 148 ft / 45 m 12,485 ft / 3,805 m 312.10° / 322.16° ASPHALT 984 ft / 300 m 200 ft / 61 m PREC-APP EDGE THRESHOLD ALSF-I

Approach Navaids

Runway Type Ident Frequency Range Bearing (true/mag) Slope Elevation
32 LOC-ILS ILCO 110.50 MHz 18 nm / 33 km 311.99° / 322.05 ° - 8,360 ft / 2,548 m (AMSL)
32 DME ILCO 110.50 MHz 18 nm / 33 km - - 8,360 ft / 2,548 m (AMSL)
32 GS ILCO 110.50 MHz 10 nm / 19 km 312.20° / 322.26 ° 3.30° 8,360 ft / 2,548 m (AMSL)

Popular Alternatives